Time;durP1;ratioP1;P1;durP2;ratioP2;P2;SDS_P1;SDS_P2;PMS_P1;PMS_P2;Temp;Humidity;BMP_temperature;BMP_pressure;BME280_temperature;BME280_humidity;BME280_pressure;Samples;Min_cycle;Max_cycle;Signal;HPM_P1;HPM_P2
2023/10/19 00:00:59;;;;;;;6.88;5.90;;;15.20;70.90;;;;;;5009691;28;20119;-52
2023/10/19 00:03:26;;;;;;;6.47;5.88;;;15.20;71.00;;;;;;5002808;28;20081;-54
2023/10/19 00:05:58;;;;;;;8.38;5.90;;;15.20;70.90;;;;;;4996872;28;20053;-53
2023/10/19 00:08:24;;;;;;;6.03;5.43;;;15.20;71.20;;;;;;5009382;28;20045;-51
2023/10/19 00:11:10;;;;;;;9.55;6.03;;;15.20;71.00;;;;;;5003833;28;20564;-51
2023/10/19 00:13:39;;;;;;;6.10;5.50;;;15.20;71.30;;;;;;4990816;28;20546;-53
2023/10/19 00:16:16;;;;;;;7.18;5.75;;;15.20;71.10;;;;;;5009859;28;20034;-52
2023/10/19 00:18:48;;;;;;;7.10;5.50;;;15.20;71.10;;;;;;4991064;28;20130;-54
2023/10/19 00:21:20;;;;;;;9.95;6.13;;;15.20;71.10;;;;;;4991046;28;20424;-52
2023/10/19 00:23:48;;;;;;;6.32;5.65;;;15.30;71.30;;;;;;5004793;28;20076;-51
2023/10/19 00:26:19;;;;;;;9.82;6.40;;;15.20;71.30;;;;;;4994379;28;20130;-51
2023/10/19 00:28:55;;;;;;;6.40;5.57;;;15.20;71.30;;;;;;4986587;28;20734;-54
2023/10/19 00:31:23;;;;;;;7.35;6.65;;;15.20;71.40;;;;;;4984244;28;20050;-53
2023/10/19 00:33:57;;;;;;;6.68;5.95;;;15.20;71.70;;;;;;4973658;28;20039;-52
2023/10/19 00:36:25;;;;;;;7.88;7.07;;;15.20;71.70;;;;;;4971363;28;20050;-53
2023/10/19 00:38:56;;;;;;;7.70;6.43;;;15.20;71.90;;;;;;4993591;28;20038;-54
2023/10/19 00:41:31;;;;;;;7.50;6.32;;;15.20;72.00;;;;;;5006214;28;20045;-51
2023/10/19 00:44:11;;;;;;;6.47;5.85;;;15.20;71.90;;;;;;5009747;28;20042;-53
2023/10/19 00:49:13;;;;;;;6.97;6.10;;;15.20;71.80;;;;;;5002758;28;20440;-53
2023/10/19 00:54:40;;;;;;;7.13;6.20;;;15.20;71.90;;;;;;5009977;28;20046;-53
2023/10/19 00:57:11;;;;;;;6.50;5.32;;;15.20;72.50;;;;;;4994221;28;20623;-49
2023/10/19 01:00:00;;;;;;;7.63;6.10;;;15.20;71.90;;;;;;5001433;28;20056;-53
2023/10/19 01:04:56;;;;;;;7.60;5.78;;;15.20;72.20;;;;;;5002396;28;20528;-52
2023/10/19 01:07:30;;;;;;;6.47;5.60;;;15.20;72.50;;;;;;4993805;28;20489;-51
2023/10/19 01:10:12;;;;;;;7.50;6.07;;;15.20;72.90;;;;;;5008044;28;20127;-51
2023/10/19 01:12:44;;;;;;;7.15;6.13;;;15.30;72.90;;;;;;4994155;28;20077;-53
2023/10/19 01:17:57;;;;;;;7.28;6.07;;;15.30;72.90;;;;;;4995475;28;20038;-51
2023/10/19 01:31:15;;;;;;;5.72;4.95;;;15.40;73.20;;;;;;4981382;28;20077;-53
2023/10/19 01:33:44;;;;;;;6.25;5.43;;;15.40;73.00;;;;;;4976964;28;20039;-50
2023/10/19 01:36:11;;;;;;;5.68;5.18;;;15.40;73.20;;;;;;4969198;28;20054;-54
2023/10/19 01:38:41;;;;;;;5.47;4.72;;;15.50;73.30;;;;;;4981735;28;20038;-53
2023/10/19 01:41:18;;;;;;;4.82;4.43;;;15.50;73.30;;;;;;5002116;28;20556;-51
2023/10/19 01:43:49;;;;;;;5.68;4.45;;;15.50;73.40;;;;;;4992852;28;20425;-51
2023/10/19 01:46:36;;;;;;;5.95;5.15;;;15.50;73.40;;;;;;4989312;28;20101;-51
2023/10/19 01:49:04;;;;;;;6.65;4.97;;;15.50;73.50;;;;;;4977424;28;20050;-54
2023/10/19 01:51:37;;;;;;;6.88;4.90;;;15.50;73.40;;;;;;4971032;28;20047;-50
2023/10/19 01:54:08;;;;;;;5.60;5.00;;;15.60;73.60;;;;;;4977997;28;20074;-52
2023/10/19 01:56:38;;;;;;;5.18;4.72;;;15.60;73.60;;;;;;4979972;28;20070;-52
2023/10/19 01:59:06;;;;;;;5.03;4.53;;;15.60;73.60;;;;;;5002722;28;20077;-50
2023/10/19 02:01:41;;;;;;;6.00;4.63;;;15.60;73.70;;;;;;4979789;28;20050;-53
2023/10/19 02:04:08;;;;;;;5.00;4.38;;;15.60;73.70;;;;;;4987715;28;20077;-50
2023/10/19 02:09:15;;;;;;;6.40;3.88;;;15.70;74.00;;;;;;4990441;28;20464;-54
2023/10/19 02:11:52;;;;;;;3.97;2.85;;;15.70;74.60;;;;;;4989693;28;20121;-50
2023/10/19 02:14:19;;;;;;;3.20;2.78;;;15.70;74.90;;;;;;4985494;28;20643;-52
2023/10/19 02:16:52;;;;;;;3.60;2.40;;;15.80;74.70;;;;;;4981614;28;20035;-51
2023/10/19 02:19:20;;;;;;;2.58;2.17;;;15.80;75.30;;;;;;4989729;28;20035;-53
2023/10/19 02:21:52;;;;;;;2.75;1.80;;;15.80;75.20;;;;;;4980180;28;20480;-50
2023/10/19 02:24:19;;;;;;;2.13;1.50;;;15.90;75.60;;;;;;4986452;28;20476;-53
2023/10/19 02:26:51;;;;;;;3.78;1.65;;;15.90;75.60;;;;;;4978890;28;20086;-54
2023/10/19 02:29:18;;;;;;;2.95;1.85;;;15.90;76.00;;;;;;4978173;28;20512;-54
2023/10/19 02:31:47;;;;;;;3.28;1.40;;;16.00;75.80;;;;;;4989087;28;20065;-50
2023/10/19 02:34:18;;;;;;;2.40;1.20;;;16.00;75.90;;;;;;4989162;28;20050;-53
2023/10/19 02:36:47;;;;;;;1.15;0.95;;;16.10;76.00;;;;;;4988954;28;20042;-53
2023/10/19 02:39:14;;;;;;;1.92;1.05;;;16.10;76.20;;;;;;4984821;28;20146;-52
2023/10/19 02:41:50;;;;;;;1.65;1.00;;;16.20;76.30;;;;;;4977351;28;20516;-53
2023/10/19 02:44:22;;;;;;;2.53;1.02;;;16.20;76.60;;;;;;4991026;28;20129;-52
2023/10/19 02:47:02;;;;;;;1.63;0.70;;;16.30;76.50;;;;;;4989254;28;20428;-52
2023/10/19 02:49:39;;;;;;;2.33;0.90;;;16.30;76.70;;;;;;4990223;28;20039;-50
2023/10/19 02:52:06;;;;;;;1.90;0.90;;;16.40;76.30;;;;;;4989643;28;20117;-52
2023/10/19 02:54:33;;;;;;;1.55;0.68;;;16.40;76.20;;;;;;4990877;28;20054;-54
2023/10/19 02:57:00;;;;;;;2.25;0.80;;;16.50;76.40;;;;;;4978468;28;20039;-52
2023/10/19 02:59:28;;;;;;;2.50;0.80;;;16.50;76.40;;;;;;4981085;28;20042;-53
2023/10/19 03:04:41;;;;;;;1.75;0.80;;;16.60;76.50;;;;;;4976278;28;20074;-54
2023/10/19 03:07:09;;;;;;;2.90;0.82;;;16.60;76.20;;;;;;4980251;28;20050;-53
2023/10/19 03:09:36;;;;;;;2.10;0.60;;;16.60;76.20;;;;;;4988516;28;20066;-53
2023/10/19 03:12:10;;;;;;;1.30;0.60;;;16.60;76.30;;;;;;4989416;28;20043;-52
2023/10/19 03:14:37;;;;;;;1.58;0.50;;;16.70;76.30;;;;;;4974993;28;20050;-54
2023/10/19 03:17:08;;;;;;;2.88;0.85;;;16.70;76.30;;;;;;4977265;28;20497;-50
2023/10/19 03:19:35;;;;;;;1.48;0.60;;;16.70;76.30;;;;;;4990943;28;20031;-53
2023/10/19 03:22:05;;;;;;;0.50;0.40;;;16.80;76.30;;;;;;4983046;28;20039;-51
2023/10/19 03:24:36;;;;;;;2.17;0.70;;;16.80;76.40;;;;;;4993274;28;20074;-54
2023/10/19 03:27:23;;;;;;;0.60;0.38;;;16.80;76.20;;;;;;4979139;28;20142;-51
2023/10/19 03:29:54;;;;;;;1.20;0.50;;;16.90;76.10;;;;;;4983352;28;20038;-55
2023/10/19 03:32:26;;;;;;;1.40;0.68;;;16.90;75.70;;;;;;4988823;28;20050;-54
2023/10/19 03:34:59;;;;;;;1.15;0.57;;;16.90;75.60;;;;;;4991242;28;20042;-53
2023/10/19 03:37:31;;;;;;;1.40;0.55;;;16.90;75.50;;;;;;4988484;28;20061;-52
2023/10/19 03:39:58;;;;;;;1.48;0.47;;;16.90;75.50;;;;;;4998974;28;20491;-53
2023/10/19 03:42:28;;;;;;;2.78;0.40;;;16.90;75.40;;;;;;4985911;28;20050;-52
2023/10/19 03:44:55;;;;;;;2.42;0.80;;;16.90;75.40;;;;;;4992802;28;20066;-51
2023/10/19 03:47:26;;;;;;;1.55;0.45;;;16.90;75.50;;;;;;4988648;28;20050;-52
2023/10/19 03:49:53;;;;;;;1.63;0.65;;;16.90;75.60;;;;;;4991143;28;20408;-54
2023/10/19 03:52:20;;;;;;;1.67;0.45;;;16.90;75.70;;;;;;4992546;28;20559;-54
2023/10/19 03:54:49;;;;;;;1.65;0.50;;;16.90;75.70;;;;;;4987320;28;20034;-52
2023/10/19 03:57:20;;;;;;;1.15;0.52;;;16.90;75.70;;;;;;4997389;28;20511;-52
2023/10/19 03:59:50;;;;;;;0.98;0.57;;;16.90;75.60;;;;;;4991987;28;20468;-55
2023/10/19 04:02:20;;;;;;;1.15;0.40;;;16.90;75.80;;;;;;4993826;28;20046;-53
2023/10/19 04:04:48;;;;;;;0.63;0.43;;;16.90;75.60;;;;;;4991457;28;20034;-51
2023/10/19 04:07:21;;;;;;;1.15;0.60;;;16.90;75.70;;;;;;4986406;28;20057;-50
2023/10/19 04:12:37;;;;;;;1.55;0.40;;;16.80;75.80;;;;;;4994132;28;20061;-54
2023/10/19 04:15:10;;;;;;;0.90;0.47;;;16.80;75.90;;;;;;4991140;28;20039;-50
2023/10/19 04:17:42;;;;;;;2.63;0.82;;;16.80;75.90;;;;;;4985736;28;20085;-54
2023/10/19 04:22:47;;;;;;;1.05;0.65;;;16.80;75.50;;;;;;4985876;28;20126;-54
2023/10/19 04:25:16;;;;;;;1.08;0.40;;;16.80;75.30;;;;;;4988743;28;20122;-51
2023/10/19 04:27:43;;;;;;;0.73;0.50;;;16.70;75.30;;;;;;4980301;28;20039;-53
2023/10/19 04:30:23;;;;;;;1.55;0.70;;;16.70;75.40;;;;;;4982707;28;20088;-55
2023/10/19 04:32:50;;;;;;;1.48;0.95;;;16.70;75.40;;;;;;4989675;28;20042;-51
2023/10/19 04:35:24;;;;;;;0.82;0.50;;;16.70;75.60;;;;;;4991483;28;20393;-55
2023/10/19 04:37:52;;;;;;;2.05;0.95;;;16.60;75.60;;;;;;4983322;28;20077;-54
2023/10/19 04:40:20;;;;;;;1.38;0.50;;;16.60;76.30;;;;;;4981264;28;20043;-54
2023/10/19 04:42:48;;;;;;;1.75;0.55;;;16.60;75.90;;;;;;4989733;28;20038;-50
2023/10/19 04:45:15;;;;;;;1.70;0.40;;;16.60;76.00;;;;;;4983863;28;20370;-55
2023/10/19 04:47:42;;;;;;;1.17;0.55;;;16.60;76.00;;;;;;4986079;28;20066;-52
2023/10/19 04:50:11;;;;;;;1.33;0.73;;;16.60;76.20;;;;;;4993324;28;20125;-54
2023/10/19 04:52:39;;;;;;;3.35;0.68;;;16.50;76.20;;;;;;4993237;28;20089;-55
2023/10/19 04:55:08;;;;;;;2.13;0.60;;;16.50;76.30;;;;;;4977109;28;20051;-54
2023/10/19 04:57:35;;;;;;;1.20;0.60;;;16.50;76.60;;;;;;4980634;28;20097;-54
2023/10/19 05:00:03;;;;;;;2.65;0.70;;;16.50;76.50;;;;;;4982387;28;20073;-53
2023/10/19 05:02:30;;;;;;;2.35;0.80;;;16.50;76.50;;;;;;4993378;28;20038;-54
2023/10/19 05:04:57;;;;;;;3.05;0.65;;;16.50;76.50;;;;;;4992044;28;20046;-51
2023/10/19 05:07:23;;;;;;;3.63;0.90;;;16.50;76.70;;;;;;4986029;28;20464;-52
2023/10/19 05:09:50;;;;;;;3.67;0.90;;;16.50;76.80;;;;;;4986800;28;20034;-52
2023/10/19 05:12:18;;;;;;;1.33;1.10;;;16.50;76.80;;;;;;4993908;28;20047;-51
2023/10/19 05:14:45;;;;;;;1.58;0.98;;;16.50;76.80;;;;;;4981477;28;20393;-51
2023/10/19 05:17:12;;;;;;;1.38;0.70;;;16.50;76.90;;;;;;4983241;28;20097;-54
2023/10/19 05:19:39;;;;;;;2.55;1.27;;;16.50;76.90;;;;;;4991922;28;20072;-53
2023/10/19 05:22:10;;;;;;;1.50;0.98;;;16.50;76.90;;;;;;4985437;28;20584;-51
2023/10/19 05:24:36;;;;;;;4.28;0.90;;;16.50;77.00;;;;;;4979858;28;20117;-53
2023/10/19 05:27:09;;;;;;;1.70;0.90;;;16.50;77.00;;;;;;4980094;28;20060;-54
2023/10/19 05:29:39;;;;;;;2.85;0.73;;;16.50;77.00;;;;;;4978307;28;20110;-50
2023/10/19 05:32:09;;;;;;;2.22;1.00;;;16.50;77.10;;;;;;4990191;28;20548;-54
2023/10/19 05:34:36;;;;;;;1.98;0.98;;;16.60;77.20;;;;;;4985988;28;20455;-55
2023/10/19 05:37:05;;;;;;;2.80;1.17;;;16.60;77.30;;;;;;4986820;28;20545;-52
2023/10/19 05:39:33;;;;;;;5.38;1.10;;;16.60;77.30;;;;;;4989122;28;20054;-53
2023/10/19 05:42:00;;;;;;;2.65;1.63;;;16.60;77.30;;;;;;4980606;28;20042;-50
2023/10/19 05:44:30;;;;;;;2.47;1.42;;;16.60;77.20;;;;;;4979251;28;20086;-50
2023/10/19 05:47:02;;;;;;;6.45;2.25;;;16.60;77.20;;;;;;4986836;28;20069;-50
2023/10/19 05:49:32;;;;;;;4.82;2.08;;;16.60;77.10;;;;;;4989382;28;20128;-50
2023/10/19 05:51:59;;;;;;;1.50;1.30;;;16.60;77.20;;;;;;4986393;28;20049;-55
2023/10/19 05:54:26;;;;;;;2.05;1.13;;;16.60;77.20;;;;;;4989411;28;20069;-56
2023/10/19 05:56:55;;;;;;;2.08;0.65;;;16.60;77.30;;;;;;4981158;28;20133;-54
2023/10/19 05:59:26;;;;;;;2.53;1.17;;;16.60;77.30;;;;;;4989574;28;20043;-53
2023/10/19 06:01:53;;;;;;;1.30;0.65;;;16.60;77.40;;;;;;4984142;28;20126;-54
2023/10/19 06:04:20;;;;;;;3.15;0.63;;;16.60;77.50;;;;;;4986606;28;20643;-50
2023/10/19 06:06:48;;;;;;;2.42;0.93;;;16.60;77.60;;;;;;4983116;28;20147;-54
2023/10/19 06:09:15;;;;;;;1.80;1.10;;;16.70;77.80;;;;;;4985852;28;20046;-54
2023/10/19 06:11:42;;;;;;;1.52;0.65;;;16.70;78.40;;;;;;4978761;28;20046;-52
2023/10/19 06:14:09;;;;;;;2.40;0.60;;;16.70;77.80;;;;;;4982977;28;20045;-52
2023/10/19 06:16:36;;;;;;;2.05;0.80;;;16.70;78.00;;;;;;4987185;28;20046;-52
2023/10/19 06:19:03;;;;;;;3.55;1.08;;;16.70;78.00;;;;;;4987701;28;20153;-53
2023/10/19 06:21:34;;;;;;;2.22;0.70;;;16.70;78.00;;;;;;4988524;28;20050;-50
2023/10/19 06:24:02;;;;;;;6.85;1.58;;;16.80;78.00;;;;;;4975806;28;20457;-51
2023/10/19 06:26:29;;;;;;;3.20;0.90;;;16.80;78.10;;;;;;4993807;28;20054;-49
2023/10/19 06:28:59;;;;;;;2.65;1.33;;;16.80;78.10;;;;;;4982425;28;20129;-51
2023/10/19 06:31:26;;;;;;;2.97;1.48;;;16.90;78.80;;;;;;4973098;28;20074;-54
2023/10/19 06:33:53;;;;;;;4.45;1.23;;;16.90;78.10;;;;;;4972890;28;20042;-51
2023/10/19 06:36:20;;;;;;;3.95;0.55;;;16.90;78.10;;;;;;4982950;28;20508;-55
2023/10/19 06:38:48;;;;;;;2.42;1.13;;;17.00;78.10;;;;;;4993494;28;20070;-53
2023/10/19 06:41:16;;;;;;;2.47;0.90;;;17.00;78.20;;;;;;4982089;28;20043;-49
2023/10/19 06:43:43;;;;;;;1.67;0.55;;;17.00;78.20;;;;;;4986657;28;20042;-53
2023/10/19 06:46:11;;;;;;;1.80;0.80;;;17.10;78.30;;;;;;4987198;28;20054;-52
2023/10/19 06:48:39;;;;;;;3.45;0.80;;;17.10;78.30;;;;;;4980168;28;20054;-53
2023/10/19 06:51:06;;;;;;;4.60;0.95;;;17.10;78.40;;;;;;4985022;28;20835;-59
2023/10/19 06:53:33;;;;;;;2.35;0.80;;;17.10;78.40;;;;;;4990845;28;20056;-54
2023/10/19 06:56:01;;;;;;;3.08;0.80;;;17.20;78.30;;;;;;4983652;28;20524;-53
2023/10/19 06:58:30;;;;;;;2.47;0.82;;;17.20;78.40;;;;;;4988158;28;20104;-56
2023/10/19 07:00:59;;;;;;;0.85;0.60;;;17.20;78.40;;;;;;4977020;28;20045;-51
2023/10/19 07:03:28;;;;;;;2.17;1.20;;;17.30;78.40;;;;;;4988981;28;20073;-53
2023/10/19 07:05:56;;;;;;;3.30;0.80;;;17.30;78.40;;;;;;4985184;28;20094;-51
2023/10/19 07:08:22;;;;;;;1.50;0.63;;;17.30;78.30;;;;;;4984781;28;20529;-52
2023/10/19 07:10:49;;;;;;;3.85;0.80;;;17.30;78.20;;;;;;4988384;28;20038;-54
2023/10/19 07:13:17;;;;;;;3.03;1.25;;;17.40;78.20;;;;;;4991883;28;20042;-51
2023/10/19 07:15:49;;;;;;;1.75;0.47;;;17.40;78.30;;;;;;4994598;28;20041;-51
2023/10/19 07:18:15;;;;;;;3.80;0.90;;;17.40;78.50;;;;;;4997115;28;20050;-53
2023/10/19 07:20:43;;;;;;;1.75;0.77;;;17.40;78.10;;;;;;4993352;28;20412;-53
2023/10/19 07:23:18;;;;;;;1.70;0.65;;;17.50;78.10;;;;;;4996775;28;20118;-52
2023/10/19 07:25:48;;;;;;;2.50;0.65;;;17.50;78.10;;;;;;4989870;28;20169;-52
2023/10/19 07:28:16;;;;;;;2.55;0.93;;;17.50;78.00;;;;;;4984705;28;20054;-50
2023/10/19 07:30:43;;;;;;;2.60;0.95;;;17.60;78.00;;;;;;4988645;28;20097;-54
2023/10/19 07:33:16;;;;;;;3.83;0.90;;;17.60;78.00;;;;;;4988152;28;20386;-55
2023/10/19 07:35:46;;;;;;;2.17;0.60;;;17.60;78.00;;;;;;4986886;28;20126;-54
2023/10/19 07:38:14;;;;;;;1.52;0.80;;;17.70;78.00;;;;;;4984541;28;20039;-53
2023/10/19 07:40:40;;;;;;;1.27;0.57;;;17.70;78.00;;;;;;4979741;28;20118;-56
2023/10/19 07:43:08;;;;;;;3.00;1.10;;;17.80;77.90;;;;;;4987313;28;20038;-54
2023/10/19 07:45:36;;;;;;;1.02;0.90;;;17.80;77.90;;;;;;4982723;28;20050;-52
2023/10/19 07:48:08;;;;;;;3.47;0.77;;;17.90;77.90;;;;;;4985406;28;20100;-51
2023/10/19 07:50:36;;;;;;;5.18;1.10;;;18.00;77.90;;;;;;4994815;28;20057;-49
2023/10/19 07:53:04;;;;;;;3.35;1.10;;;18.00;77.70;;;;;;4987464;28;20122;-51
2023/10/19 07:55:33;;;;;;;3.75;1.15;;;18.00;77.70;;;;;;4986325;28;20532;-49
2023/10/19 07:58:00;;;;;;;5.07;1.20;;;18.10;77.40;;;;;;4986569;28;20066;-53
2023/10/19 08:00:29;;;;;;;2.88;0.75;;;18.10;77.40;;;;;;4993628;28;20118;-54
2023/10/19 08:02:58;;;;;;;2.03;0.65;;;18.20;77.40;;;;;;4993869;28;20078;-52
2023/10/19 08:05:27;;;;;;;2.45;0.80;;;18.20;77.20;;;;;;4988776;28;20039;-54
2023/10/19 08:07:57;;;;;;;2.00;1.20;;;18.30;76.90;;;;;;4989256;28;20046;-56
2023/10/19 08:10:25;;;;;;;6.05;1.00;;;18.30;76.80;;;;;;4994469;28;20492;-54
2023/10/19 08:12:52;;;;;;;3.70;1.23;;;18.30;76.70;;;;;;4988586;28;20096;-53
2023/10/19 08:15:20;;;;;;;2.45;0.90;;;18.40;76.70;;;;;;4994147;28;20497;-53
2023/10/19 08:17:49;;;;;;;8.38;1.35;;;18.40;76.60;;;;;;4993620;28;20129;-53
2023/10/19 08:20:17;;;;;;;5.00;1.17;;;18.50;76.70;;;;;;4986470;28;20134;-53
2023/10/19 08:22:47;;;;;;;3.15;1.30;;;18.50;76.80;;;;;;4991888;28;20121;-55
2023/10/19 08:25:17;;;;;;;4.30;0.90;;;18.50;76.70;;;;;;4994198;28;20038;-54
2023/10/19 08:27:50;;;;;;;3.17;0.98;;;18.60;76.70;;;;;;4989216;28;20073;-52
2023/10/19 08:30:21;;;;;;;4.07;1.50;;;18.70;76.70;;;;;;4984770;28;20052;-53
2023/10/19 08:32:54;;;;;;;2.50;0.93;;;18.70;76.70;;;;;;4986651;28;20046;-54
2023/10/19 08:35:24;;;;;;;2.88;1.00;;;18.80;76.40;;;;;;4985107;28;20046;-52
2023/10/19 08:37:53;;;;;;;4.10;1.13;;;18.90;76.40;;;;;;4993110;28;20034;-54
2023/10/19 08:40:21;;;;;;;3.00;1.05;;;19.00;76.00;;;;;;4991119;28;20416;-52
2023/10/19 08:42:48;;;;;;;2.72;2.42;;;19.00;76.40;;;;;;4996505;28;20042;-54
2023/10/19 08:45:16;;;;;;;4.75;1.20;;;19.10;75.50;;;;;;4984984;28;20062;-51
2023/10/19 08:47:59;;;;;;;2.97;1.33;;;19.10;75.10;;;;;;4991042;28;20048;-54
2023/10/19 08:50:28;;;;;;;4.43;1.00;;;19.10;75.00;;;;;;4988357;28;20050;-54
2023/10/19 08:52:58;;;;;;;4.07;1.42;;;19.20;74.60;;;;;;4982250;28;20045;-52
2023/10/19 08:55:25;;;;;;;3.97;1.27;;;19.20;74.50;;;;;;4989747;28;20038;-52
2023/10/19 08:58:11;;;;;;;5.30;2.10;;;19.20;74.20;;;;;;4985074;28;20517;-54
2023/10/19 09:00:46;;;;;;;3.30;1.35;;;19.10;74.00;;;;;;4995222;28;20050;-53
2023/10/19 09:03:16;;;;;;;1.90;1.10;;;19.10;73.90;;;;;;4993140;28;20069;-56
2023/10/19 09:05:46;;;;;;;3.38;1.05;;;19.10;73.90;;;;;;4989561;28;20498;-54
2023/10/19 09:08:21;;;;;;;4.50;1.40;;;19.10;73.90;;;;;;4988763;28;20565;-55
2023/10/19 09:10:51;;;;;;;3.58;1.23;;;19.10;74.10;;;;;;4993667;28;20042;-55
2023/10/19 09:13:18;;;;;;;4.70;1.40;;;19.00;73.80;;;;;;4986889;28;20122;-52
2023/10/19 09:15:48;;;;;;;6.55;1.75;;;19.10;74.10;;;;;;4990497;28;20501;-53
2023/10/19 09:18:19;;;;;;;3.80;1.17;;;19.10;73.90;;;;;;4996115;28;20046;-50
2023/10/19 09:20:54;;;;;;;3.65;1.70;;;19.10;74.00;;;;;;4993385;28;20039;-53
2023/10/19 09:23:22;;;;;;;3.55;1.40;;;19.20;73.80;;;;;;4985757;28;20054;-54
2023/10/19 09:25:55;;;;;;;2.92;1.20;;;19.20;73.70;;;;;;4989601;28;20093;-54
2023/10/19 09:28:23;;;;;;;8.23;1.85;;;19.30;73.90;;;;;;4990422;28;20058;-52
2023/10/19 09:30:53;;;;;;;5.30;1.70;;;19.40;73.70;;;;;;4993691;28;20125;-51
2023/10/19 09:33:22;;;;;;;5.05;1.67;;;19.50;73.20;;;;;;4992441;28;20038;-54
2023/10/19 09:35:52;;;;;;;4.50;1.63;;;19.50;73.40;;;;;;4984968;28;20046;-53
2023/10/19 09:38:22;;;;;;;6.38;1.08;;;19.60;72.90;;;;;;4995503;28;20049;-55
2023/10/19 09:40:50;;;;;;;5.18;1.38;;;19.70;72.80;;;;;;4992205;28;20042;-54
2023/10/19 09:43:41;;;;;;;7.95;2.00;;;19.80;72.40;;;;;;4988300;28;20500;-54
2023/10/19 09:46:11;;;;;;;3.35;1.27;;;19.90;72.60;;;;;;4985897;28;20400;-54
2023/10/19 09:48:45;;;;;;;4.93;0.98;;;20.00;72.20;;;;;;4989537;28;20050;-55
2023/10/19 09:51:13;;;;;;;7.05;1.40;;;20.00;72.10;;;;;;4979909;28;20062;-56
2023/10/19 09:53:47;;;;;;;3.13;1.08;;;20.10;71.70;;;;;;4983341;28;20047;-55
2023/10/19 09:56:41;;;;;;;4.13;1.77;;;20.20;71.00;;;;;;4981078;28;20121;-56
2023/10/19 09:59:26;;;;;;;3.72;1.20;;;20.30;70.70;;;;;;4980028;28;20050;-56
2023/10/19 10:02:07;;;;;;;7.28;2.08;;;20.40;70.30;;;;;;4994358;28;20501;-54
2023/10/19 10:04:37;;;;;;;5.57;1.00;;;20.40;69.60;;;;;;4991568;28;20046;-53
2023/10/19 10:07:06;;;;;;;3.88;0.98;;;20.50;70.20;;;;;;4987563;28;20038;-54
2023/10/19 10:09:44;;;;;;;2.88;1.40;;;20.60;70.00;;;;;;4996594;28;20144;-54
2023/10/19 10:12:26;;;;;;;4.63;1.40;;;20.70;69.40;;;;;;4989992;28;20121;-54
2023/10/19 10:14:59;;;;;;;5.28;1.27;;;20.70;69.50;;;;;;4989671;28;20567;-54
2023/10/19 10:17:28;;;;;;;2.65;1.65;;;20.80;69.70;;;;;;4991740;28;20125;-54
2023/10/19 10:20:13;;;;;;;4.03;1.30;;;20.80;69.60;;;;;;4996021;28;20030;-51
2023/10/19 10:22:43;;;;;;;7.72;1.58;;;20.90;69.60;;;;;;4987734;28;20065;-54
2023/10/19 10:25:30;;;;;;;3.85;1.25;;;20.90;69.60;;;;;;4982222;28;20047;-53
2023/10/19 10:27:58;;;;;;;2.97;1.20;;;21.00;69.80;;;;;;4986864;28;20042;-54
2023/10/19 10:30:28;;;;;;;3.17;1.33;;;21.10;69.90;;;;;;4985181;28;20042;-54
2023/10/19 10:32:56;;;;;;;3.63;1.65;;;21.20;69.50;;;;;;4984844;28;20850;-54
2023/10/19 10:35:41;;;;;;;4.95;1.50;;;21.30;69.50;;;;;;4984541;28;20054;-55
2023/10/19 10:38:12;;;;;;;4.15;1.65;;;21.40;69.00;;;;;;4984447;28;20042;-53
2023/10/19 10:40:43;;;;;;;5.78;1.60;;;21.40;68.80;;;;;;4986380;28;20038;-52
2023/10/19 10:43:12;;;;;;;3.97;1.40;;;21.50;68.20;;;;;;4991621;28;20049;-56
2023/10/19 10:45:43;;;;;;;5.63;1.42;;;21.50;68.20;;;;;;4983138;28;20042;-51
2023/10/19 10:48:14;;;;;;;5.03;1.63;;;21.50;67.50;;;;;;5005903;23;20077;-52
2023/10/19 10:50:41;;;;;;;4.15;1.40;;;21.50;67.50;;;;;;5002489;28;20477;-51
2023/10/19 10:53:11;;;;;;;4.43;1.50;;;21.50;67.60;;;;;;5004180;28;20030;-51
2023/10/19 10:55:41;;;;;;;4.00;1.30;;;21.50;67.70;;;;;;4995454;28;20121;-53
2023/10/19 10:58:10;;;;;;;6.40;1.60;;;21.50;67.60;;;;;;5002787;28;20041;-53
2023/10/19 11:00:44;;;;;;;3.00;1.02;;;21.50;67.60;;;;;;4989526;28;20053;-51
2023/10/19 11:03:13;;;;;;;2.70;1.00;;;21.50;67.20;;;;;;4980039;28;20039;-52
2023/10/19 11:05:40;;;;;;;2.92;1.00;;;21.50;67.60;;;;;;4990376;28;20062;-54
2023/10/19 11:08:16;;;;;;;2.80;1.30;;;21.40;67.40;;;;;;4989002;28;20665;-51
2023/10/19 11:10:46;;;;;;;1.95;1.00;;;21.50;67.20;;;;;;4983311;28;20052;-54
2023/10/19 11:13:18;;;;;;;4.13;2.28;;;21.50;67.30;;;;;;4984994;28;20046;-53
2023/10/19 11:15:53;;;;;;;3.47;1.10;;;21.50;67.40;;;;;;4979515;28;20038;-52
2023/10/19 11:18:37;;;;;;;2.97;1.25;;;21.50;67.80;;;;;;4977487;28;20042;-53
2023/10/19 11:21:09;;;;;;;2.75;1.02;;;21.60;67.10;;;;;;4983876;28;20046;-54
2023/10/19 11:23:43;;;;;;;6.72;2.15;;;21.70;67.10;;;;;;4985156;28;20535;-54
2023/10/19 11:26:16;;;;;;;2.08;1.23;;;21.80;67.20;;;;;;4986870;28;20047;-53
2023/10/19 11:28:53;;;;;;;7.35;1.42;;;21.90;67.00;;;;;;4980282;28;20459;-54
2023/10/19 11:31:24;;;;;;;4.75;1.63;;;22.00;66.80;;;;;;4976710;28;20432;-52
2023/10/19 11:33:53;;;;;;;4.50;1.80;;;22.10;66.20;;;;;;4980856;28;20050;-54
2023/10/19 11:36:22;;;;;;;5.43;1.55;;;22.10;66.20;;;;;;4987361;28;20046;-53
2023/10/19 11:38:51;;;;;;;4.80;1.25;;;22.20;66.10;;;;;;4980861;28;20489;-53
2023/10/19 11:41:25;;;;;;;4.72;1.27;;;22.20;65.60;;;;;;4978194;28;20568;-54
2023/10/19 11:43:52;;;;;;;2.88;1.30;;;22.30;64.90;;;;;;4980966;28;20046;-54
2023/10/19 11:46:25;;;;;;;3.97;1.50;;;22.30;65.10;;;;;;4980636;28;20416;-54
2023/10/19 11:48:53;;;;;;;3.97;1.52;;;22.30;65.20;;;;;;4981256;28;20137;-54
2023/10/19 11:51:19;;;;;;;5.47;1.50;;;22.30;65.30;;;;;;4972611;28;20498;-53
2023/10/19 11:53:46;;;;;;;4.25;1.67;;;22.20;65.00;;;;;;4973441;28;20421;-54
2023/10/19 11:56:13;;;;;;;5.93;1.65;;;22.20;64.80;;;;;;4984388;28;20081;-53
2023/10/19 11:58:44;;;;;;;3.88;1.00;;;22.20;65.10;;;;;;4983239;28;20057;-54
2023/10/19 12:01:16;;;;;;;2.80;1.38;;;22.20;64.90;;;;;;4989418;28;20038;-54
2023/10/19 12:03:48;;;;;;;3.92;1.40;;;22.20;64.70;;;;;;4984015;28;20511;-53
2023/10/19 12:06:18;;;;;;;4.13;1.52;;;22.20;64.70;;;;;;4984344;28;20038;-53
2023/10/19 12:08:46;;;;;;;3.17;1.05;;;22.10;65.00;;;;;;4987133;28;20054;-53
2023/10/19 12:11:19;;;;;;;5.28;1.58;;;22.10;65.20;;;;;;4993662;28;20460;-53
2023/10/19 12:13:47;;;;;;;5.10;1.02;;;22.10;65.10;;;;;;4987639;28;20054;-51
2023/10/19 12:16:15;;;;;;;1.63;0.90;;;22.20;65.20;;;;;;4989878;28;20073;-54
2023/10/19 12:18:44;;;;;;;4.03;1.27;;;22.10;65.20;;;;;;4986421;28;20054;-50
2023/10/19 12:21:14;;;;;;;6.88;2.33;;;22.10;65.10;;;;;;4989007;28;20532;-52
2023/10/19 12:23:43;;;;;;;3.28;1.73;;;22.10;65.10;;;;;;4979278;28;20088;-53
2023/10/19 12:26:13;;;;;;;4.50;1.30;;;22.10;65.20;;;;;;4987334;28;20045;-52
2023/10/19 12:28:40;;;;;;;6.05;1.50;;;22.10;65.50;;;;;;4986913;28;20047;-53
2023/10/19 12:31:12;;;;;;;6.82;1.45;;;22.10;65.60;;;;;;4978536;28;20054;-49
2023/10/19 12:33:41;;;;;;;3.58;1.90;;;22.00;65.60;;;;;;4984258;28;20074;-54
2023/10/19 12:38:57;;;;;;;5.25;2.13;;;22.00;65.80;;;;;;4979669;28;20051;-54
2023/10/19 12:41:27;;;;;;;6.43;1.50;;;22.00;66.10;;;;;;4984333;28;20386;-53
2023/10/19 12:44:08;;;;;;;4.10;1.67;;;21.90;66.20;;;;;;4987707;28;20069;-54
2023/10/19 12:46:36;;;;;;;4.10;1.25;;;21.90;66.40;;;;;;4982511;28;20066;-53
2023/10/19 12:49:13;;;;;;;5.95;2.28;;;21.90;66.40;;;;;;4984486;28;20760;-53
2023/10/19 12:51:42;;;;;;;4.15;1.73;;;21.80;66.40;;;;;;4981015;28;20046;-51
2023/10/19 12:54:10;;;;;;;5.22;1.45;;;22.00;66.70;;;;;;4981224;28;20535;-51
2023/10/19 12:56:39;;;;;;;4.97;2.35;;;21.80;66.60;;;;;;4989476;28;20415;-53
2023/10/19 12:59:06;;;;;;;10.07;1.67;;;21.80;66.80;;;;;;4982065;28;20062;-54
2023/10/19 13:01:35;;;;;;;6.95;1.83;;;21.80;66.80;;;;;;4983452;28;20113;-54
2023/10/19 13:04:13;;;;;;;6.53;2.10;;;21.70;66.90;;;;;;4980360;28;20038;-52
2023/10/19 13:06:40;;;;;;;6.30;1.73;;;21.70;66.90;;;;;;4986773;28;20456;-54
2023/10/19 13:09:11;;;;;;;6.72;1.90;;;21.70;66.90;;;;;;4987668;28;20074;-51
2023/10/19 13:11:38;;;;;;;6.10;1.73;;;21.70;67.10;;;;;;4990876;28;20104;-53
2023/10/19 13:14:06;;;;;;;4.20;1.60;;;21.60;67.10;;;;;;4983575;28;20042;-52
2023/10/19 13:16:35;;;;;;;2.70;1.42;;;21.60;67.50;;;;;;4980450;28;20116;-54
2023/10/19 13:19:11;;;;;;;2.63;1.33;;;21.60;67.80;;;;;;4984353;28;20157;-53
2023/10/19 13:21:38;;;;;;;5.82;1.23;;;21.60;67.90;;;;;;4980479;28;20129;-51
2023/10/19 13:24:06;;;;;;;6.35;1.77;;;21.50;68.00;;;;;;4982378;28;20118;-50
2023/10/19 13:26:32;;;;;;;4.55;1.63;;;21.50;68.10;;;;;;4982634;28;20050;-51
2023/10/19 13:29:01;;;;;;;6.50;1.60;;;21.50;68.30;;;;;;4977087;28;20066;-52
2023/10/19 13:31:32;;;;;;;4.55;1.38;;;21.50;68.30;;;;;;4982555;28;20041;-53
2023/10/19 13:33:59;;;;;;;3.40;1.40;;;21.50;68.30;;;;;;4981529;28;20066;-54
2023/10/19 13:36:26;;;;;;;3.67;1.52;;;21.50;68.30;;;;;;4983421;28;20042;-54
2023/10/19 13:38:53;;;;;;;5.40;1.30;;;21.40;68.20;;;;;;4981735;28;20054;-50